createdAt,value
2023-06-19T00:01:09.332Z,91341.06
2023-06-19T00:03:36.110Z,91337.66
2023-06-19T00:06:03.123Z,91339.91
2023-06-19T00:08:31.817Z,91334.28
2023-06-19T00:10:58.783Z,91335.78
2023-06-19T00:13:25.752Z,91329.38
2023-06-19T00:15:52.511Z,91336.13
2023-06-19T00:18:20.942Z,91338.75
2023-06-19T00:20:47.842Z,91329.00
2023-06-19T00:23:18.271Z,91336.13
2023-06-19T00:25:45.726Z,91335.78
2023-06-19T00:28:16.004Z,91329.75
2023-06-19T00:30:43.077Z,91330.13
2023-06-19T00:33:10.001Z,91333.88
2023-06-19T00:35:36.843Z,91332.41
2023-06-19T00:38:03.997Z,91336.91
2023-06-19T00:40:32.721Z,91330.84
2023-06-19T00:42:59.952Z,91335.75
2023-06-19T00:45:27.731Z,91347.03
2023-06-19T00:47:55.624Z,91344.00
2023-06-19T00:50:23.185Z,91336.47
2023-06-19T00:52:50.239Z,91337.22
2023-06-19T00:55:18.239Z,91342.50
2023-06-19T00:57:45.166Z,91344.00
2023-06-19T01:00:13.632Z,91344.78
2023-06-19T01:02:40.964Z,91350.00
2023-06-19T01:05:08.386Z,91345.91
2023-06-19T01:08:00.176Z,91340.66
2023-06-19T01:10:36.502Z,91342.53
2023-06-19T01:13:21.114Z,91343.66
2023-06-19T01:15:54.412Z,91345.53
2023-06-19T01:18:28.516Z,91339.88
2023-06-19T01:20:55.229Z,91330.50
2023-06-19T01:23:21.936Z,91340.25
2023-06-19T01:25:48.961Z,91343.28
2023-06-19T01:28:22.758Z,91334.22
2023-06-19T01:30:49.815Z,91344.00
2023-06-19T01:33:28.025Z,91339.84
2023-06-19T01:35:56.861Z,91349.66
2023-06-19T01:38:26.901Z,91341.38
2023-06-19T01:40:55.787Z,91345.47
2023-06-19T01:43:23.148Z,91347.38
2023-06-19T01:45:50.033Z,91353.72
2023-06-19T01:48:16.849Z,91345.47
2023-06-19T01:50:48.550Z,91346.88
2023-06-19T01:53:16.250Z,91354.44
2023-06-19T01:55:43.403Z,91342.47
2023-06-19T01:58:10.222Z,91346.97
2023-06-19T02:00:36.942Z,91350.75
2023-06-19T02:03:03.750Z,91349.63
2023-06-19T02:05:31.770Z,91344.31
2023-06-19T02:07:58.800Z,91342.84
2023-06-19T02:10:25.648Z,91348.09
2023-06-19T02:12:52.445Z,91350.72
2023-06-19T02:15:19.161Z,91361.59
2023-06-19T02:17:45.923Z,91366.50
2023-06-19T02:20:13.077Z,91363.09
2023-06-19T02:22:40.684Z,91361.22
2023-06-19T02:25:08.050Z,91375.13
2023-06-19T02:27:34.816Z,91369.88
2023-06-19T02:30:01.722Z,91375.44
2023-06-19T02:32:28.450Z,91375.53
2023-06-19T02:34:55.284Z,91377.41
2023-06-19T02:37:21.969Z,91378.53
2023-06-19T02:39:48.708Z,91386.34
2023-06-19T02:42:15.800Z,91384.94
2023-06-19T02:44:43.634Z,91386.06
2023-06-19T02:47:10.762Z,91396.56
2023-06-19T02:49:37.568Z,91385.69
2023-06-19T02:52:05.674Z,91387.53
2023-06-19T02:54:33.382Z,91392.06
2023-06-19T02:57:01.148Z,91389.41
2023-06-19T02:59:28.869Z,91385.63
2023-06-19T03:01:55.546Z,91395.41
2023-06-19T03:04:22.617Z,91399.16
2023-06-19T03:06:49.290Z,91393.06
2023-06-19T03:09:16.544Z,91389.00
2023-06-19T03:11:43.536Z,91384.16
2023-06-19T03:14:10.492Z,91391.97
2023-06-19T03:16:37.261Z,91376.63
2023-06-19T03:19:04.295Z,91385.31
2023-06-19T03:21:31.018Z,91385.72
2023-06-19T03:23:57.760Z,91388.31
2023-06-19T03:26:26.106Z,91367.97
2023-06-19T03:28:52.897Z,91381.50
2023-06-19T03:31:19.738Z,91384.53
2023-06-19T03:33:46.509Z,91381.56
2023-06-19T03:36:13.231Z,91389.44
2023-06-19T03:38:39.998Z,91377.88
2023-06-19T03:41:06.710Z,91386.88
2023-06-19T03:43:33.402Z,91384.66
2023-06-19T03:46:00.166Z,91382.41
2023-06-19T03:48:26.967Z,91382.38
2023-06-19T03:50:53.694Z,91386.13
2023-06-19T03:53:20.427Z,91377.91
2023-06-19T03:55:47.267Z,91386.53
2023-06-19T03:58:14.155Z,91383.13
2023-06-19T04:00:42.397Z,91385.41
2023-06-19T04:03:10.782Z,91383.53
2023-06-19T04:05:37.727Z,91378.63
2023-06-19T04:08:05.288Z,91383.50
2023-06-19T04:10:33.888Z,91388.00
2023-06-19T04:13:01.998Z,91389.16
2023-06-19T04:15:28.745Z,91389.16
2023-06-19T04:17:55.623Z,91394.41
2023-06-19T04:20:22.570Z,91392.50
2023-06-19T04:22:49.440Z,91391.34
2023-06-19T04:25:16.227Z,91394.34
2023-06-19T04:27:42.907Z,91391.72
2023-06-19T04:30:09.912Z,91384.56
2023-06-19T04:32:36.813Z,91381.94
2023-06-19T04:35:03.891Z,91379.28
2023-06-19T04:37:30.593Z,91378.09
2023-06-19T04:39:57.530Z,91373.94
2023-06-19T04:42:24.389Z,91370.09
2023-06-19T04:44:51.120Z,91381.16
2023-06-19T04:47:19.810Z,91386.06
2023-06-19T04:49:47.293Z,91394.22
2023-06-19T04:52:15.502Z,91404.53
2023-06-19T04:54:42.325Z,91405.41
2023-06-19T04:57:09.033Z,91405.47
2023-06-19T04:59:35.746Z,91409.31
2023-06-19T05:02:02.530Z,91415.28
2023-06-19T05:04:33.921Z,91411.88
2023-06-19T05:07:00.911Z,91419.94
2023-06-19T05:09:27.791Z,91413.00
2023-06-19T05:11:54.591Z,91404.53
2023-06-19T05:14:21.608Z,91408.38
2023-06-19T05:16:48.390Z,91398.91
2023-06-19T05:19:15.148Z,91402.84
2023-06-19T05:21:42.426Z,91402.44
2023-06-19T05:24:09.279Z,91400.47
2023-06-19T05:26:36.141Z,91398.00
2023-06-19T05:29:03.144Z,91398.75
2023-06-19T05:31:29.985Z,91397.00
2023-06-19T05:33:56.728Z,91390.28
2023-06-19T05:36:23.469Z,91395.22
2023-06-19T05:38:56.453Z,91385.06
2023-06-19T05:41:23.183Z,91384.81
2023-06-19T05:43:50.041Z,91390.75
2023-06-19T05:46:16.834Z,91389.63
2023-06-19T05:48:43.575Z,91396.75
2023-06-19T05:51:10.263Z,91386.56
2023-06-19T05:53:37.093Z,91394.75
2023-06-19T05:56:04.340Z,91389.63
2023-06-19T05:58:32.383Z,91382.59
2023-06-19T06:00:59.764Z,91390.19
2023-06-19T06:03:26.711Z,91385.59
2023-06-19T06:05:55.001Z,91386.75
2023-06-19T06:08:21.999Z,91388.00
2023-06-19T06:10:48.724Z,91386.06
2023-06-19T06:13:15.378Z,91383.91
2023-06-19T06:15:42.116Z,91387.47
2023-06-19T06:18:08.842Z,91386.97
2023-06-19T06:20:35.568Z,91393.91
2023-06-19T06:23:02.262Z,91391.34
2023-06-19T06:25:29.092Z,91384.84
2023-06-19T06:27:55.823Z,91392.63
2023-06-19T06:30:29.734Z,91386.13
2023-06-19T06:32:56.582Z,91390.84
2023-06-19T06:35:23.373Z,91386.56
2023-06-19T06:37:51.144Z,91380.72
2023-06-19T06:40:19.420Z,91396.13
2023-06-19T06:42:46.125Z,91389.84
2023-06-19T06:45:12.915Z,91393.78
2023-06-19T06:47:41.227Z,91387.16
2023-06-19T06:50:09.580Z,91386.91
2023-06-19T06:52:36.482Z,91390.84
2023-06-19T06:55:03.374Z,91391.81
2023-06-19T06:57:30.075Z,91376.06
2023-06-19T06:59:56.828Z,91381.88
2023-06-19T07:02:23.880Z,91392.06
2023-06-19T07:04:51.096Z,91378.78
2023-06-19T07:07:17.802Z,91386.53
2023-06-19T07:09:44.598Z,91376.47
2023-06-19T07:12:11.679Z,91379.03
2023-06-19T07:14:38.443Z,91382.78
2023-06-19T07:17:08.338Z,91378.31
2023-06-19T07:19:35.352Z,91376.38
2023-06-19T07:22:02.724Z,91376.50
2023-06-19T07:24:29.562Z,91379.81
2023-06-19T07:26:57.594Z,91390.47
2023-06-19T07:29:24.483Z,91392.44
2023-06-19T07:31:55.217Z,91384.22
2023-06-19T07:34:22.711Z,91390.72
2023-06-19T07:36:49.369Z,91390.88
2023-06-19T07:39:17.879Z,91383.00
2023-06-19T07:41:45.737Z,91401.28
2023-06-19T07:44:12.637Z,91396.69
2023-06-19T07:46:39.451Z,91401.56
2023-06-19T07:49:06.169Z,91405.38
2023-06-19T07:51:32.872Z,91407.97
2023-06-19T07:53:59.738Z,91401.13
2023-06-19T07:56:26.438Z,91404.09
2023-06-19T07:58:53.135Z,91409.50
2023-06-19T08:01:19.855Z,91410.47
2023-06-19T08:03:47.097Z,91414.91
2023-06-19T08:06:13.908Z,91409.31
2023-06-19T08:08:40.661Z,91412.72
2023-06-19T08:11:07.336Z,91407.09
2023-06-19T08:13:35.464Z,91413.63
2023-06-19T08:16:03.373Z,91414.75
2023-06-19T08:18:30.202Z,91418.69
2023-06-19T08:20:57.024Z,91415.97
2023-06-19T08:23:23.664Z,91418.25
2023-06-19T08:25:52.096Z,91421.63
2023-06-19T08:28:18.840Z,91428.38
2023-06-19T08:30:46.854Z,91424.28
2023-06-19T08:33:15.256Z,91414.56
2023-06-19T08:35:42.075Z,91418.97
2023-06-19T08:38:08.755Z,91418.91
2023-06-19T08:40:35.674Z,91421.88
2023-06-19T08:43:02.593Z,91427.25
2023-06-19T08:45:29.404Z,91423.19
2023-06-19T08:48:03.623Z,91424.91
2023-06-19T08:50:31.575Z,91424.59
2023-06-19T08:52:58.646Z,91436.25
2023-06-19T08:55:26.246Z,91428.69
2023-06-19T08:57:53.970Z,91417.25
2023-06-19T09:00:28.588Z,91424.22
2023-06-19T09:03:13.582Z,91425.78
2023-06-19T09:05:51.429Z,91427.56
2023-06-19T09:08:24.048Z,91433.59
2023-06-19T09:11:01.819Z,91424.25
2023-06-19T09:13:32.378Z,91423.63
2023-06-19T09:16:09.297Z,91416.19
2023-06-19T09:18:48.412Z,91419.06
2023-06-19T09:21:23.185Z,91415.72
2023-06-19T09:23:52.688Z,91415.63
2023-06-19T09:26:20.988Z,91417.09
2023-06-19T09:28:48.070Z,91405.06
2023-06-19T09:31:14.827Z,91414.28
2023-06-19T09:33:42.241Z,91416.63
2023-06-19T09:36:09.857Z,91411.75
2023-06-19T09:38:44.283Z,91413.16
2023-06-19T09:41:11.876Z,91411.09
2023-06-19T09:43:48.748Z,91406.06
2023-06-19T09:46:16.195Z,91407.88
2023-06-19T09:48:44.888Z,91402.72
2023-06-19T09:51:12.304Z,91402.63
2023-06-19T09:53:39.064Z,91406.91
2023-06-19T09:56:05.748Z,91404.22
2023-06-19T09:58:33.610Z,91401.97
2023-06-19T10:01:01.197Z,91409.94
2023-06-19T10:03:35.210Z,91409.56
2023-06-19T10:06:08.771Z,91408.25
2023-06-19T10:08:43.865Z,91397.22
2023-06-19T10:11:11.867Z,91390.47
2023-06-19T10:13:41.257Z,91395.47
2023-06-19T10:16:21.659Z,91404.22
2023-06-19T10:18:49.474Z,91397.06
2023-06-19T10:21:21.620Z,91397.91
2023-06-19T10:23:59.403Z,91396.31
2023-06-19T10:26:33.995Z,91405.00
2023-06-19T10:29:01.584Z,91394.25
2023-06-19T10:31:29.992Z,91385.41
2023-06-19T10:33:57.089Z,91392.38
2023-06-19T10:36:26.613Z,91395.38
2023-06-19T10:38:53.422Z,91393.19
2023-06-19T10:41:23.549Z,91401.72
2023-06-19T10:44:14.111Z,91395.94
2023-06-19T10:46:42.370Z,91396.59
2023-06-19T10:49:11.487Z,91400.78
2023-06-19T10:51:39.680Z,91395.75
2023-06-19T10:54:06.810Z,91396.09
2023-06-19T10:56:33.673Z,91393.06
2023-06-19T10:59:14.826Z,91391.06
2023-06-19T11:01:44.132Z,91393.41
2023-06-19T11:04:12.939Z,91388.47
2023-06-19T11:06:41.677Z,91391.31
2023-06-19T11:09:09.630Z,91392.69
2023-06-19T11:11:43.792Z,91398.84
2023-06-19T11:14:13.509Z,91400.00
2023-06-19T11:16:43.247Z,91401.44
2023-06-19T11:19:14.725Z,91394.31
2023-06-19T11:21:41.523Z,91391.41
2023-06-19T11:24:13.515Z,91395.22
2023-06-19T11:26:51.035Z,91401.06
2023-06-19T11:29:19.870Z,91391.41
2023-06-19T11:31:49.715Z,91394.50
2023-06-19T11:34:18.084Z,91405.31
2023-06-19T11:36:45.828Z,91411.44
2023-06-19T11:39:16.959Z,91404.75
2023-06-19T11:41:45.878Z,91412.88
2023-06-19T11:44:12.737Z,91414.91
2023-06-19T11:46:39.988Z,91406.31
2023-06-19T11:49:21.609Z,91406.78
2023-06-19T11:51:48.345Z,91400.06
2023-06-19T11:54:19.290Z,91403.97
2023-06-19T11:56:46.275Z,91401.75
2023-06-19T11:59:13.030Z,91403.81
2023-06-19T12:01:40.017Z,91395.50
2023-06-19T12:04:07.666Z,91396.66
2023-06-19T12:06:36.658Z,91392.38
2023-06-19T12:09:05.881Z,91396.38
2023-06-19T12:11:33.040Z,91392.06
2023-06-19T12:13:59.724Z,91387.16
2023-06-19T12:16:26.656Z,91383.75
2023-06-19T12:18:54.565Z,91394.28
2023-06-19T12:21:34.086Z,91398.75
2023-06-19T12:24:03.210Z,91390.75
2023-06-19T12:26:30.143Z,91393.53
2023-06-19T12:28:56.887Z,91387.72
2023-06-19T12:31:23.759Z,91390.47
2023-06-19T12:33:50.556Z,91396.47
2023-06-19T12:36:17.654Z,91392.97
2023-06-19T12:38:44.505Z,91382.22
2023-06-19T12:41:11.188Z,91376.00
2023-06-19T12:43:38.096Z,91379.53
2023-06-19T12:46:05.322Z,91380.16
2023-06-19T12:48:33.369Z,91397.44
2023-06-19T12:51:00.298Z,91394.88
2023-06-19T12:53:30.683Z,91389.97
2023-06-19T12:56:04.611Z,91385.25
2023-06-19T12:58:33.752Z,91392.94
2023-06-19T13:01:05.988Z,91383.00
2023-06-19T13:03:32.858Z,91388.94
2023-06-19T13:06:00.196Z,91392.66
2023-06-19T13:08:27.410Z,91400.34
2023-06-19T13:10:54.220Z,91390.38
2023-06-19T13:13:21.067Z,91391.47
2023-06-19T13:15:47.936Z,91384.19
2023-06-19T13:18:15.248Z,91391.16
2023-06-19T13:20:42.221Z,91399.06
2023-06-19T13:23:09.639Z,91388.94
2023-06-19T13:25:36.331Z,91379.88
2023-06-19T13:28:03.265Z,91384.59
2023-06-19T13:30:30.371Z,91379.19
2023-06-19T13:32:57.111Z,91373.56
2023-06-19T13:35:23.932Z,91372.97
2023-06-19T13:37:50.654Z,91370.47
2023-06-19T13:40:17.427Z,91368.25
2023-06-19T13:42:44.200Z,91364.03
2023-06-19T13:45:11.444Z,91376.44
2023-06-19T13:47:38.458Z,91374.22
2023-06-19T13:50:06.333Z,91380.13
2023-06-19T13:52:32.998Z,91383.25
2023-06-19T13:55:00.523Z,91381.28
2023-06-19T13:57:27.330Z,91377.47
2023-06-19T13:59:54.096Z,91370.16
2023-06-19T14:02:20.880Z,91367.84
2023-06-19T14:04:53.720Z,91374.66
2023-06-19T14:07:23.142Z,91368.09
2023-06-19T14:09:49.912Z,91363.81
2023-06-19T14:12:16.961Z,91369.91
2023-06-19T14:14:43.669Z,91362.03
2023-06-19T14:17:10.560Z,91365.41
2023-06-19T14:19:37.450Z,91371.75
2023-06-19T14:22:04.342Z,91368.41
2023-06-19T14:24:31.072Z,91371.66
2023-06-19T14:26:57.808Z,91377.22
2023-06-19T14:29:25.000Z,91379.56
2023-06-19T14:31:53.020Z,91366.47
2023-06-19T14:34:20.878Z,91377.94
2023-06-19T14:36:47.893Z,91383.78
2023-06-19T14:39:15.167Z,91373.22
2023-06-19T14:41:41.912Z,91370.41
2023-06-19T14:44:08.603Z,91363.03
2023-06-19T14:46:40.357Z,91367.06
2023-06-19T14:49:08.208Z,91366.44
2023-06-19T14:51:35.153Z,91370.22
2023-06-19T14:54:04.736Z,91367.97
2023-06-19T14:56:31.533Z,91367.97
2023-06-19T14:58:58.237Z,91367.38
2023-06-19T15:01:25.012Z,91364.84
2023-06-19T15:03:51.998Z,91356.50
2023-06-19T15:06:18.748Z,91348.31
2023-06-19T15:08:45.485Z,91371.31
2023-06-19T15:11:12.348Z,91365.56
2023-06-19T15:13:47.333Z,91368.44
2023-06-19T15:16:14.259Z,91366.03
2023-06-19T15:18:42.238Z,91377.72
2023-06-19T15:21:09.118Z,91368.44
2023-06-19T15:23:36.033Z,91365.28
2023-06-19T15:26:02.897Z,91371.97
2023-06-19T15:28:29.553Z,91365.00
2023-06-19T15:30:57.787Z,91365.72
2023-06-19T15:33:24.530Z,91365.56
2023-06-19T15:35:52.114Z,91370.22
2023-06-19T15:38:19.168Z,91374.03
2023-06-19T15:40:46.987Z,91372.66
2023-06-19T15:43:14.150Z,91374.50
2023-06-19T15:45:40.929Z,91372.16
2023-06-19T15:48:07.852Z,91375.47
2023-06-19T15:50:34.726Z,91374.97
2023-06-19T15:53:01.520Z,91377.78
2023-06-19T15:55:28.863Z,91374.06
2023-06-19T15:57:55.649Z,91380.47
2023-06-19T16:00:23.000Z,91374.81
2023-06-19T16:02:50.240Z,91378.19
2023-06-19T16:05:17.992Z,91389.47
2023-06-19T16:07:45.097Z,91377.59
2023-06-19T16:10:12.067Z,91384.44
2023-06-19T16:12:38.973Z,91399.50
2023-06-19T16:15:06.295Z,91397.78
2023-06-19T16:17:33.104Z,91398.34
2023-06-19T16:20:00.219Z,91397.09
2023-06-19T16:22:27.069Z,91402.81
2023-06-19T16:24:59.587Z,91401.97
2023-06-19T16:27:31.793Z,91410.81
2023-06-19T16:29:58.802Z,91405.25
2023-06-19T16:32:25.733Z,91405.44
2023-06-19T16:34:52.697Z,91418.09
2023-06-19T16:37:20.030Z,91410.75
2023-06-19T16:39:46.964Z,91418.94
2023-06-19T16:42:16.669Z,91406.16
2023-06-19T16:44:43.494Z,91407.06
2023-06-19T16:47:10.366Z,91406.59
2023-06-19T16:49:37.419Z,91416.69
2023-06-19T16:52:04.308Z,91404.41
2023-06-19T16:54:31.037Z,91407.34
2023-06-19T16:56:57.894Z,91412.66
2023-06-19T16:59:25.277Z,91409.50
2023-06-19T17:01:52.196Z,91401.84
2023-06-19T17:04:20.821Z,91408.00
2023-06-19T17:06:47.592Z,91409.19
2023-06-19T17:09:19.595Z,91412.53
2023-06-19T17:11:46.476Z,91410.06
2023-06-19T17:14:13.377Z,91411.66
2023-06-19T17:16:40.214Z,91418.69
2023-06-19T17:19:07.162Z,91413.03
2023-06-19T17:21:33.852Z,91413.25
2023-06-19T17:24:00.621Z,91412.38
2023-06-19T17:26:27.411Z,91411.94
2023-06-19T17:28:54.136Z,91425.06
2023-06-19T17:31:20.802Z,91418.97
2023-06-19T17:33:47.498Z,91431.09
2023-06-19T17:36:14.231Z,91432.84
2023-06-19T17:38:41.181Z,91430.38
2023-06-19T17:41:08.146Z,91437.53
2023-06-19T17:43:34.866Z,91435.19
2023-06-19T17:46:01.672Z,91439.75
2023-06-19T17:48:34.022Z,91444.16
2023-06-19T17:51:00.746Z,91447.78
2023-06-19T17:53:27.446Z,91454.59
2023-06-19T17:55:54.122Z,91447.78
2023-06-19T17:58:22.690Z,91448.94
2023-06-19T18:00:49.417Z,91452.88
2023-06-19T18:03:16.345Z,91465.03
2023-06-19T18:05:44.401Z,91457.72
2023-06-19T18:08:11.141Z,91463.53
2023-06-19T18:10:37.958Z,91468.13
2023-06-19T18:13:04.650Z,91471.13
2023-06-19T18:15:31.332Z,91461.59
2023-06-19T18:17:58.202Z,91464.63
2023-06-19T18:20:25.121Z,91462.75
2023-06-19T18:22:52.125Z,91475.59
2023-06-19T18:25:18.997Z,91468.78
2023-06-19T18:27:45.698Z,91472.66
2023-06-19T18:30:12.777Z,91479.31
2023-06-19T18:32:39.725Z,91477.22
2023-06-19T18:35:06.793Z,91486.53
2023-06-19T18:37:33.870Z,91485.28
2023-06-19T18:40:02.749Z,91494.38
2023-06-19T18:42:30.795Z,91495.47
2023-06-19T18:44:57.483Z,91498.25
2023-06-19T18:47:24.317Z,91499.28
2023-06-19T18:49:52.607Z,91499.38
2023-06-19T18:52:19.545Z,91497.06
2023-06-19T18:54:46.293Z,91506.41
2023-06-19T18:57:12.984Z,91498.84
2023-06-19T18:59:39.741Z,91507.16
2023-06-19T19:02:08.533Z,91497.75
2023-06-19T19:04:38.732Z,91510.75
2023-06-19T19:07:05.911Z,91513.75
2023-06-19T19:09:32.719Z,91512.47
2023-06-19T19:11:59.527Z,91506.50
2023-06-19T19:14:26.250Z,91511.59
2023-06-19T19:16:52.992Z,91513.31
2023-06-19T19:19:19.834Z,91523.81
2023-06-19T19:21:53.911Z,91509.59
2023-06-19T19:24:23.736Z,91528.22
2023-06-19T19:26:50.784Z,91532.19
2023-06-19T19:29:17.558Z,91512.44
2023-06-19T19:31:44.460Z,91529.25
2023-06-19T19:34:12.485Z,91524.69
2023-06-19T19:36:39.198Z,91536.75
2023-06-19T19:39:05.926Z,91537.00
2023-06-19T19:41:32.718Z,91535.34
2023-06-19T19:43:59.426Z,91546.03
2023-06-19T19:46:26.560Z,91540.63
2023-06-19T19:48:53.861Z,91544.94
2023-06-19T19:51:20.581Z,91540.31
2023-06-19T19:53:47.358Z,91544.94
2023-06-19T19:56:14.030Z,91545.66
2023-06-19T19:58:40.734Z,91541.78
2023-06-19T20:01:07.606Z,91529.63
2023-06-19T20:03:37.502Z,91553.00
2023-06-19T20:06:04.412Z,91538.25
2023-06-19T20:08:31.231Z,91543.50
2023-06-19T20:10:57.875Z,91548.56
2023-06-19T20:13:26.378Z,91552.97
2023-06-19T20:15:53.181Z,91556.34
2023-06-19T20:18:20.843Z,91557.50
2023-06-19T20:20:47.632Z,91558.09
2023-06-19T20:23:14.511Z,91556.38
2023-06-19T20:25:41.166Z,91562.91
2023-06-19T20:28:08.911Z,91558.03
2023-06-19T20:30:36.014Z,91569.63
2023-06-19T20:33:02.915Z,91563.94
2023-06-19T20:35:29.728Z,91554.34
2023-06-19T20:37:56.488Z,91558.09
2023-06-19T20:40:25.576Z,91559.91
2023-06-19T20:42:52.670Z,91561.06
2023-06-19T20:45:29.495Z,91553.91
2023-06-19T20:47:56.437Z,91565.59
2023-06-19T20:50:23.864Z,91564.28
2023-06-19T20:52:51.041Z,91555.22
2023-06-19T20:55:18.077Z,91533.47
2023-06-19T20:57:45.026Z,91554.88
2023-06-19T21:00:13.404Z,91556.28
2023-06-19T21:02:40.381Z,91561.47
2023-06-19T21:05:12.369Z,91560.75
2023-06-19T21:07:39.096Z,91551.63
2023-06-19T21:10:06.361Z,91556.63
2023-06-19T21:12:33.362Z,91563.75
2023-06-19T21:15:00.219Z,91564.69
2023-06-19T21:17:27.096Z,91556.50
2023-06-19T21:19:53.936Z,91554.34
2023-06-19T21:22:20.698Z,91559.13
2023-06-19T21:24:47.525Z,91559.50
2023-06-19T21:27:14.269Z,91554.97
2023-06-19T21:29:41.050Z,91564.88
2023-06-19T21:32:17.780Z,91565.66
2023-06-19T21:34:44.506Z,91561.53
2023-06-19T21:37:11.145Z,91557.53
2023-06-19T21:39:37.890Z,91569.22
2023-06-19T21:42:04.710Z,91565.72
2023-06-19T21:44:31.546Z,91556.69
2023-06-19T21:46:58.307Z,91559.72
2023-06-19T21:49:25.413Z,91567.63
2023-06-19T21:51:52.425Z,91564.22
2023-06-19T21:54:19.109Z,91543.13
2023-06-19T21:56:45.806Z,91561.22
2023-06-19T21:59:12.527Z,91565.06
2023-06-19T22:01:40.567Z,91555.38
2023-06-19T22:04:08.513Z,91563.59
2023-06-19T22:06:35.429Z,91563.31
2023-06-19T22:09:02.685Z,91562.88
2023-06-19T22:11:29.653Z,91561.72
2023-06-19T22:13:57.237Z,91563.66
2023-06-19T22:16:24.516Z,91558.81
2023-06-19T22:18:51.379Z,91571.22
2023-06-19T22:21:18.078Z,91563.00
2023-06-19T22:23:45.042Z,91570.13
2023-06-19T22:26:12.062Z,91571.97
2023-06-19T22:28:38.762Z,91575.78
2023-06-19T22:31:07.473Z,91576.13
2023-06-19T22:33:34.414Z,91572.41
2023-06-19T22:36:01.074Z,91577.31
2023-06-19T22:38:28.948Z,91569.03
2023-06-19T22:40:55.685Z,91577.69
2023-06-19T22:43:22.458Z,91578.03
2023-06-19T22:45:49.304Z,91578.03
2023-06-19T22:48:19.467Z,91570.53
2023-06-19T22:50:47.223Z,91583.34
2023-06-19T22:53:14.043Z,91576.94
2023-06-19T22:55:40.719Z,91579.59
2023-06-19T22:58:07.406Z,91578.09
2023-06-19T23:00:35.080Z,91578.09
2023-06-19T23:03:02.034Z,91567.53
2023-06-19T23:05:29.254Z,91576.53
2023-06-19T23:07:56.776Z,91573.19
2023-06-19T23:10:23.532Z,91576.59
2023-06-19T23:12:50.249Z,91570.50
2023-06-19T23:15:17.095Z,91565.63
2023-06-19T23:17:44.375Z,91565.25
2023-06-19T23:20:15.421Z,91561.09
2023-06-19T23:22:42.207Z,91562.97
2023-06-19T23:25:09.474Z,91559.97
2023-06-19T23:27:36.291Z,91558.47
2023-06-19T23:30:03.527Z,91549.81
2023-06-19T23:32:30.269Z,91561.47
2023-06-19T23:34:59.020Z,91558.84
2023-06-19T23:37:27.938Z,91550.16
2023-06-19T23:39:55.198Z,91565.94
2023-06-19T23:42:21.995Z,91557.63
2023-06-19T23:44:48.688Z,91558.78
2023-06-19T23:47:15.422Z,91552.41
2023-06-19T23:49:42.881Z,91553.91
2023-06-19T23:52:09.890Z,91550.13
2023-06-19T23:54:36.594Z,91556.16
2023-06-19T23:57:03.947Z,91562.16
2023-06-19T23:59:30.690Z,91556.19
